sensor_id;sensor_type;location;lat;lon;timestamp;temperature;humidity
33095;DHT22;19459;53.044;8.910;2023-03-04T00:02:01;5.90;99.90
33095;DHT22;19459;53.044;8.910;2023-03-04T00:04:27;6.00;99.90
33095;DHT22;19459;53.044;8.910;2023-03-04T00:06:53;6.00;99.90
33095;DHT22;19459;53.044;8.910;2023-03-04T00:09:18;5.90;99.90
33095;DHT22;19459;53.044;8.910;2023-03-04T00:11:44;5.90;99.90
33095;DHT22;19459;53.044;8.910;2023-03-04T00:14:10;6.00;99.90
33095;DHT22;19459;53.044;8.910;2023-03-04T00:16:36;5.90;99.90
33095;DHT22;19459;53.044;8.910;2023-03-04T00:19:02;6.00;99.90
33095;DHT22;19459;53.044;8.910;2023-03-04T00:21:28;6.00;99.90
33095;DHT22;19459;53.044;8.910;2023-03-04T00:23:55;5.90;99.90
33095;DHT22;19459;53.044;8.910;2023-03-04T00:26:21;6.00;99.90
33095;DHT22;19459;53.044;8.910;2023-03-04T00:28:47;6.00;99.90
33095;DHT22;19459;53.044;8.910;2023-03-04T00:31:13;5.90;99.90
33095;DHT22;19459;53.044;8.910;2023-03-04T00:33:38;6.00;99.90
33095;DHT22;19459;53.044;8.910;2023-03-04T00:36:05;6.00;99.90
33095;DHT22;19459;53.044;8.910;2023-03-04T00:38:31;6.00;99.90
33095;DHT22;19459;53.044;8.910;2023-03-04T00:40:57;6.00;99.90
33095;DHT22;19459;53.044;8.910;2023-03-04T00:43:22;6.00;99.90
33095;DHT22;19459;53.044;8.910;2023-03-04T00:45:48;6.00;99.90
33095;DHT22;19459;53.044;8.910;2023-03-04T00:48:14;6.10;99.90
33095;DHT22;19459;53.044;8.910;2023-03-04T00:50:41;6.00;99.90
33095;DHT22;19459;53.044;8.910;2023-03-04T00:53:07;6.10;99.90
33095;DHT22;19459;53.044;8.910;2023-03-04T00:55:33;6.10;99.90
33095;DHT22;19459;53.044;8.910;2023-03-04T00:57:59;6.10;99.90
33095;DHT22;19459;53.044;8.910;2023-03-04T01:00:24;6.00;99.90
33095;DHT22;19459;53.044;8.910;2023-03-04T01:02:50;6.00;99.90
33095;DHT22;19459;53.044;8.910;2023-03-04T01:05:16;6.10;99.90
33095;DHT22;19459;53.044;8.910;2023-03-04T01:07:42;6.10;99.90
33095;DHT22;19459;53.044;8.910;2023-03-04T01:10:10;6.10;99.90
33095;DHT22;19459;53.044;8.910;2023-03-04T01:12:36;6.10;99.90
33095;DHT22;19459;53.044;8.910;2023-03-04T01:15:03;6.10;99.90
33095;DHT22;19459;53.044;8.910;2023-03-04T01:17:29;6.10;99.90
33095;DHT22;19459;53.044;8.910;2023-03-04T01:19:54;6.00;99.90
33095;DHT22;19459;53.044;8.910;2023-03-04T01:22:20;6.10;99.90
33095;DHT22;19459;53.044;8.910;2023-03-04T01:24:46;6.10;99.90
33095;DHT22;19459;53.044;8.910;2023-03-04T01:27:12;6.10;99.90
33095;DHT22;19459;53.044;8.910;2023-03-04T01:29:38;6.10;99.90
33095;DHT22;19459;53.044;8.910;2023-03-04T01:32:04;6.10;99.90
33095;DHT22;19459;53.044;8.910;2023-03-04T01:34:29;6.10;99.90
33095;DHT22;19459;53.044;8.910;2023-03-04T01:36:55;6.10;99.90
33095;DHT22;19459;53.044;8.910;2023-03-04T01:39:21;6.20;99.90
33095;DHT22;19459;53.044;8.910;2023-03-04T01:41:47;6.10;99.90
33095;DHT22;19459;53.044;8.910;2023-03-04T01:44:13;6.20;99.90
33095;DHT22;19459;53.044;8.910;2023-03-04T01:46:42;6.20;99.90
33095;DHT22;19459;53.044;8.910;2023-03-04T01:49:15;6.20;99.90
33095;DHT22;19459;53.044;8.910;2023-03-04T01:51:48;6.20;99.90
33095;DHT22;19459;53.044;8.910;2023-03-04T01:54:18;6.20;99.90
33095;DHT22;19459;53.044;8.910;2023-03-04T01:56:47;6.10;99.90
33095;DHT22;19459;53.044;8.910;2023-03-04T01:59:20;6.20;99.90
33095;DHT22;19459;53.044;8.910;2023-03-04T02:01:52;6.20;99.90
33095;DHT22;19459;53.044;8.910;2023-03-04T02:04:30;6.20;99.90
33095;DHT22;19459;53.044;8.910;2023-03-04T02:06:59;6.20;99.90
33095;DHT22;19459;53.044;8.910;2023-03-04T02:09:26;6.10;99.90
33095;DHT22;19459;53.044;8.910;2023-03-04T02:11:53;6.10;99.90
33095;DHT22;19459;53.044;8.910;2023-03-04T02:14:19;6.10;99.90
33095;DHT22;19459;53.044;8.910;2023-03-04T02:16:47;6.10;99.90
33095;DHT22;19459;53.044;8.910;2023-03-04T02:22:15;6.10;99.90
33095;DHT22;19459;53.044;8.910;2023-03-04T02:24:53;6.10;99.90
33095;DHT22;19459;53.044;8.910;2023-03-04T02:27:22;6.10;99.90
33095;DHT22;19459;53.044;8.910;2023-03-04T02:29:48;6.10;99.90
33095;DHT22;19459;53.044;8.910;2023-03-04T02:32:14;6.10;99.90
33095;DHT22;19459;53.044;8.910;2023-03-04T02:34:46;6.00;99.90
33095;DHT22;19459;53.044;8.910;2023-03-04T02:37:13;6.10;99.90
33095;DHT22;19459;53.044;8.910;2023-03-04T02:39:42;6.10;99.90
33095;DHT22;19459;53.044;8.910;2023-03-04T02:42:09;6.10;99.90
33095;DHT22;19459;53.044;8.910;2023-03-04T02:44:38;6.10;99.90
33095;DHT22;19459;53.044;8.910;2023-03-04T02:47:08;6.10;99.90
33095;DHT22;19459;53.044;8.910;2023-03-04T02:49:36;6.10;99.90
33095;DHT22;19459;53.044;8.910;2023-03-04T02:52:15;6.00;99.90
33095;DHT22;19459;53.044;8.910;2023-03-04T02:54:42;6.00;99.90
33095;DHT22;19459;53.044;8.910;2023-03-04T02:57:10;6.00;99.90
33095;DHT22;19459;53.044;8.910;2023-03-04T02:59:38;5.90;99.90
33095;DHT22;19459;53.044;8.910;2023-03-04T03:02:05;5.90;99.90
33095;DHT22;19459;53.044;8.910;2023-03-04T03:04:32;5.90;99.90
33095;DHT22;19459;53.044;8.910;2023-03-04T03:06:58;5.90;99.90
33095;DHT22;19459;53.044;8.910;2023-03-04T03:09:24;5.80;99.90
33095;DHT22;19459;53.044;8.910;2023-03-04T03:11:50;5.80;99.90
33095;DHT22;19459;53.044;8.910;2023-03-04T03:14:16;5.80;99.90
33095;DHT22;19459;53.044;8.910;2023-03-04T03:16:41;5.80;99.90
33095;DHT22;19459;53.044;8.910;2023-03-04T03:19:07;5.70;99.90
33095;DHT22;19459;53.044;8.910;2023-03-04T03:21:33;5.80;99.90
33095;DHT22;19459;53.044;8.910;2023-03-04T03:23:59;5.70;99.90
33095;DHT22;19459;53.044;8.910;2023-03-04T03:26:25;5.70;99.90
33095;DHT22;19459;53.044;8.910;2023-03-04T03:28:50;5.70;99.90
33095;DHT22;19459;53.044;8.910;2023-03-04T03:31:16;5.70;99.90
33095;DHT22;19459;53.044;8.910;2023-03-04T03:33:42;5.70;99.90
33095;DHT22;19459;53.044;8.910;2023-03-04T03:36:08;5.70;99.90
33095;DHT22;19459;53.044;8.910;2023-03-04T03:38:34;5.80;99.90
33095;DHT22;19459;53.044;8.910;2023-03-04T03:41:01;5.80;99.90
33095;DHT22;19459;53.044;8.910;2023-03-04T03:43:26;5.70;99.90
33095;DHT22;19459;53.044;8.910;2023-03-04T03:45:52;5.80;99.90
33095;DHT22;19459;53.044;8.910;2023-03-04T03:48:18;5.80;99.90
33095;DHT22;19459;53.044;8.910;2023-03-04T03:50:44;5.80;99.90
33095;DHT22;19459;53.044;8.910;2023-03-04T03:53:10;5.80;99.90
33095;DHT22;19459;53.044;8.910;2023-03-04T03:55:36;5.80;99.90
33095;DHT22;19459;53.044;8.910;2023-03-04T03:58:03;5.80;99.90
33095;DHT22;19459;53.044;8.910;2023-03-04T04:00:29;5.80;99.90
33095;DHT22;19459;53.044;8.910;2023-03-04T04:02:57;5.90;99.90
33095;DHT22;19459;53.044;8.910;2023-03-04T04:05:23;5.80;99.90
33095;DHT22;19459;53.044;8.910;2023-03-04T04:07:48;5.80;99.90
33095;DHT22;19459;53.044;8.910;2023-03-04T04:10:15;5.70;99.90
33095;DHT22;19459;53.044;8.910;2023-03-04T04:12:40;5.70;99.90
33095;DHT22;19459;53.044;8.910;2023-03-04T04:15:08;5.80;99.90
33095;DHT22;19459;53.044;8.910;2023-03-04T04:17:35;5.70;99.90
33095;DHT22;19459;53.044;8.910;2023-03-04T04:20:01;5.70;99.90
33095;DHT22;19459;53.044;8.910;2023-03-04T04:22:27;5.70;99.90
33095;DHT22;19459;53.044;8.910;2023-03-04T04:24:53;5.60;99.90
33095;DHT22;19459;53.044;8.910;2023-03-04T04:27:19;5.60;99.90
33095;DHT22;19459;53.044;8.910;2023-03-04T04:29:44;5.60;99.90
33095;DHT22;19459;53.044;8.910;2023-03-04T04:32:10;5.60;99.90
33095;DHT22;19459;53.044;8.910;2023-03-04T04:34:37;5.60;99.90
33095;DHT22;19459;53.044;8.910;2023-03-04T04:37:03;5.60;99.90
33095;DHT22;19459;53.044;8.910;2023-03-04T04:39:29;5.60;99.90
33095;DHT22;19459;53.044;8.910;2023-03-04T04:41:55;5.50;99.90
33095;DHT22;19459;53.044;8.910;2023-03-04T04:44:20;5.60;99.90
33095;DHT22;19459;53.044;8.910;2023-03-04T04:46:46;5.60;99.90
33095;DHT22;19459;53.044;8.910;2023-03-04T04:49:12;5.60;99.90
33095;DHT22;19459;53.044;8.910;2023-03-04T04:51:38;5.60;99.90
33095;DHT22;19459;53.044;8.910;2023-03-04T04:54:04;5.60;99.90
33095;DHT22;19459;53.044;8.910;2023-03-04T04:56:31;5.60;99.90
33095;DHT22;19459;53.044;8.910;2023-03-04T04:58:59;5.60;99.90
33095;DHT22;19459;53.044;8.910;2023-03-04T05:01:26;5.50;99.90
33095;DHT22;19459;53.044;8.910;2023-03-04T05:03:53;5.50;99.90
33095;DHT22;19459;53.044;8.910;2023-03-04T05:06:21;5.50;99.90
33095;DHT22;19459;53.044;8.910;2023-03-04T05:08:49;5.50;99.90
33095;DHT22;19459;53.044;8.910;2023-03-04T05:11:15;5.50;99.90
33095;DHT22;19459;53.044;8.910;2023-03-04T05:13:41;5.40;99.90
33095;DHT22;19459;53.044;8.910;2023-03-04T05:16:08;5.40;99.90
33095;DHT22;19459;53.044;8.910;2023-03-04T05:18:34;5.40;99.90
33095;DHT22;19459;53.044;8.910;2023-03-04T05:21:01;5.40;99.90
33095;DHT22;19459;53.044;8.910;2023-03-04T05:23:30;5.40;99.90
33095;DHT22;19459;53.044;8.910;2023-03-04T05:25:58;5.40;99.90
33095;DHT22;19459;53.044;8.910;2023-03-04T05:28:24;5.40;99.90
33095;DHT22;19459;53.044;8.910;2023-03-04T05:30:50;5.40;99.90
33095;DHT22;19459;53.044;8.910;2023-03-04T05:33:17;5.40;99.90
33095;DHT22;19459;53.044;8.910;2023-03-04T05:35:44;5.40;99.90
33095;DHT22;19459;53.044;8.910;2023-03-04T05:38:13;5.40;99.90
33095;DHT22;19459;53.044;8.910;2023-03-04T05:40:40;5.40;99.90
33095;DHT22;19459;53.044;8.910;2023-03-04T05:43:07;5.30;99.90
33095;DHT22;19459;53.044;8.910;2023-03-04T05:45:33;5.30;99.90
33095;DHT22;19459;53.044;8.910;2023-03-04T05:47:59;5.30;99.90
33095;DHT22;19459;53.044;8.910;2023-03-04T05:50:25;5.30;99.90
33095;DHT22;19459;53.044;8.910;2023-03-04T05:52:51;5.30;99.90
33095;DHT22;19459;53.044;8.910;2023-03-04T05:55:17;5.30;99.90
33095;DHT22;19459;53.044;8.910;2023-03-04T05:57:45;5.30;99.90
33095;DHT22;19459;53.044;8.910;2023-03-04T06:00:13;5.30;99.90
33095;DHT22;19459;53.044;8.910;2023-03-04T06:02:40;5.30;99.90
33095;DHT22;19459;53.044;8.910;2023-03-04T06:05:08;5.30;99.90
33095;DHT22;19459;53.044;8.910;2023-03-04T06:07:35;5.30;99.90
33095;DHT22;19459;53.044;8.910;2023-03-04T06:10:01;5.30;99.90
33095;DHT22;19459;53.044;8.910;2023-03-04T06:12:27;5.30;99.90
33095;DHT22;19459;53.044;8.910;2023-03-04T06:14:53;5.30;99.90
33095;DHT22;19459;53.044;8.910;2023-03-04T06:17:19;5.30;99.90
33095;DHT22;19459;53.044;8.910;2023-03-04T06:19:45;5.30;99.90
33095;DHT22;19459;53.044;8.910;2023-03-04T06:22:11;5.40;99.90
33095;DHT22;19459;53.044;8.910;2023-03-04T06:24:37;5.40;99.90
33095;DHT22;19459;53.044;8.910;2023-03-04T06:27:03;5.40;99.90
33095;DHT22;19459;53.044;8.910;2023-03-04T06:29:29;5.40;99.90
33095;DHT22;19459;53.044;8.910;2023-03-04T06:31:55;5.40;99.90
33095;DHT22;19459;53.044;8.910;2023-03-04T06:34:21;5.50;99.90
33095;DHT22;19459;53.044;8.910;2023-03-04T06:36:47;5.50;99.90
33095;DHT22;19459;53.044;8.910;2023-03-04T06:39:13;5.50;99.90
33095;DHT22;19459;53.044;8.910;2023-03-04T06:41:38;5.50;99.90
33095;DHT22;19459;53.044;8.910;2023-03-04T06:44:05;5.50;99.90
33095;DHT22;19459;53.044;8.910;2023-03-04T06:46:33;5.50;99.90
33095;DHT22;19459;53.044;8.910;2023-03-04T06:48:59;5.50;99.90
33095;DHT22;19459;53.044;8.910;2023-03-04T06:51:26;5.50;99.90
33095;DHT22;19459;53.044;8.910;2023-03-04T06:53:53;5.50;99.90
33095;DHT22;19459;53.044;8.910;2023-03-04T06:56:20;5.60;99.90
33095;DHT22;19459;53.044;8.910;2023-03-04T06:58:46;5.60;99.90
33095;DHT22;19459;53.044;8.910;2023-03-04T07:03:44;5.60;99.90
33095;DHT22;19459;53.044;8.910;2023-03-04T07:06:12;5.60;99.90
33095;DHT22;19459;53.044;8.910;2023-03-04T07:08:39;5.60;99.90
33095;DHT22;19459;53.044;8.910;2023-03-04T07:11:05;5.70;99.90
33095;DHT22;19459;53.044;8.910;2023-03-04T07:13:31;5.70;99.90
33095;DHT22;19459;53.044;8.910;2023-03-04T07:16:00;5.70;99.90
33095;DHT22;19459;53.044;8.910;2023-03-04T07:18:26;5.70;99.90
33095;DHT22;19459;53.044;8.910;2023-03-04T07:20:52;5.70;99.90
33095;DHT22;19459;53.044;8.910;2023-03-04T07:23:18;5.70;99.90
33095;DHT22;19459;53.044;8.910;2023-03-04T07:25:44;5.80;99.90
33095;DHT22;19459;53.044;8.910;2023-03-04T07:28:11;5.80;99.90
33095;DHT22;19459;53.044;8.910;2023-03-04T07:30:36;5.80;99.90
33095;DHT22;19459;53.044;8.910;2023-03-04T07:33:02;5.90;99.90
33095;DHT22;19459;53.044;8.910;2023-03-04T07:35:28;5.90;99.90
33095;DHT22;19459;53.044;8.910;2023-03-04T07:37:54;5.90;99.90
33095;DHT22;19459;53.044;8.910;2023-03-04T07:40:20;5.90;99.90
33095;DHT22;19459;53.044;8.910;2023-03-04T07:42:50;5.90;99.90
33095;DHT22;19459;53.044;8.910;2023-03-04T07:45:19;5.90;99.90
33095;DHT22;19459;53.044;8.910;2023-03-04T07:47:45;6.00;99.90
33095;DHT22;19459;53.044;8.910;2023-03-04T07:50:11;6.00;99.90
33095;DHT22;19459;53.044;8.910;2023-03-04T07:52:42;6.00;99.90
33095;DHT22;19459;53.044;8.910;2023-03-04T07:55:10;6.00;99.90
33095;DHT22;19459;53.044;8.910;2023-03-04T07:57:39;6.00;99.90
33095;DHT22;19459;53.044;8.910;2023-03-04T08:00:06;6.00;99.90
33095;DHT22;19459;53.044;8.910;2023-03-04T08:02:34;6.00;99.90
33095;DHT22;19459;53.044;8.910;2023-03-04T08:04:59;6.00;99.90
33095;DHT22;19459;53.044;8.910;2023-03-04T08:07:25;6.00;99.90
33095;DHT22;19459;53.044;8.910;2023-03-04T08:09:51;6.00;99.90
33095;DHT22;19459;53.044;8.910;2023-03-04T08:12:17;6.00;99.90
33095;DHT22;19459;53.044;8.910;2023-03-04T08:14:43;6.10;99.90
33095;DHT22;19459;53.044;8.910;2023-03-04T08:17:09;6.10;99.90
33095;DHT22;19459;53.044;8.910;2023-03-04T08:19:35;6.10;99.90
33095;DHT22;19459;53.044;8.910;2023-03-04T08:22:01;6.10;99.90
33095;DHT22;19459;53.044;8.910;2023-03-04T08:24:27;6.10;99.90
33095;DHT22;19459;53.044;8.910;2023-03-04T08:26:53;6.20;99.90
33095;DHT22;19459;53.044;8.910;2023-03-04T08:29:21;6.20;99.90
33095;DHT22;19459;53.044;8.910;2023-03-04T08:31:49;6.20;99.90
33095;DHT22;19459;53.044;8.910;2023-03-04T08:34:16;6.20;99.90
33095;DHT22;19459;53.044;8.910;2023-03-04T08:36:43;6.20;99.90
33095;DHT22;19459;53.044;8.910;2023-03-04T08:39:12;6.20;99.90
33095;DHT22;19459;53.044;8.910;2023-03-04T08:41:38;6.20;99.90
33095;DHT22;19459;53.044;8.910;2023-03-04T08:44:04;6.10;99.90
33095;DHT22;19459;53.044;8.910;2023-03-04T08:46:33;6.00;99.90
33095;DHT22;19459;53.044;8.910;2023-03-04T08:48:58;6.00;99.90
33095;DHT22;19459;53.044;8.910;2023-03-04T08:51:24;6.00;99.90
33095;DHT22;19459;53.044;8.910;2023-03-04T08:53:50;6.00;99.90
33095;DHT22;19459;53.044;8.910;2023-03-04T08:56:16;6.10;99.90
33095;DHT22;19459;53.044;8.910;2023-03-04T08:58:42;6.10;99.90
33095;DHT22;19459;53.044;8.910;2023-03-04T09:01:11;6.10;99.90
33095;DHT22;19459;53.044;8.910;2023-03-04T09:03:37;6.30;99.90
33095;DHT22;19459;53.044;8.910;2023-03-04T09:06:04;6.40;99.90
33095;DHT22;19459;53.044;8.910;2023-03-04T09:08:30;6.50;99.90
33095;DHT22;19459;53.044;8.910;2023-03-04T09:10:56;6.50;99.90
33095;DHT22;19459;53.044;8.910;2023-03-04T09:13:23;6.50;99.90
33095;DHT22;19459;53.044;8.910;2023-03-04T09:15:50;6.40;99.90
33095;DHT22;19459;53.044;8.910;2023-03-04T09:18:18;6.30;99.90
33095;DHT22;19459;53.044;8.910;2023-03-04T09:20:45;6.20;99.90
33095;DHT22;19459;53.044;8.910;2023-03-04T09:23:11;6.10;99.90
33095;DHT22;19459;53.044;8.910;2023-03-04T09:25:38;6.00;99.90
33095;DHT22;19459;53.044;8.910;2023-03-04T09:28:04;6.00;99.90
33095;DHT22;19459;53.044;8.910;2023-03-04T09:30:31;5.80;99.90
33095;DHT22;19459;53.044;8.910;2023-03-04T09:32:58;6.10;99.90
33095;DHT22;19459;53.044;8.910;2023-03-04T09:35:24;6.40;99.90
33095;DHT22;19459;53.044;8.910;2023-03-04T09:37:51;6.60;99.90
33095;DHT22;19459;53.044;8.910;2023-03-04T09:40:41;6.90;99.90
33095;DHT22;19459;53.044;8.910;2023-03-04T09:43:18;7.20;99.90
33095;DHT22;19459;53.044;8.910;2023-03-04T09:45:52;7.30;99.90
33095;DHT22;19459;53.044;8.910;2023-03-04T09:48:44;7.10;99.90
33095;DHT22;19459;53.044;8.910;2023-03-04T10:05:38;6.20;99.90
33095;DHT22;19459;53.044;8.910;2023-03-04T10:11:02;6.70;99.90
33095;DHT22;19459;53.044;8.910;2023-03-04T10:16:56;7.20;99.90
33095;DHT22;19459;53.044;8.910;2023-03-04T10:19:52;7.40;99.90
33095;DHT22;19459;53.044;8.910;2023-03-04T10:22:43;7.40;99.90
33095;DHT22;19459;53.044;8.910;2023-03-04T10:25:17;7.10;99.90
33095;DHT22;19459;53.044;8.910;2023-03-04T10:33:25;7.40;99.90
33095;DHT22;19459;53.044;8.910;2023-03-04T10:36:13;7.70;99.90
33095;DHT22;19459;53.044;8.910;2023-03-04T10:38:48;7.80;99.90
33095;DHT22;19459;53.044;8.910;2023-03-04T10:41:23;7.80;99.90
33095;DHT22;19459;53.044;8.910;2023-03-04T10:46:37;7.20;99.90
33095;DHT22;19459;53.044;8.910;2023-03-04T10:49:08;6.90;99.90
33095;DHT22;19459;53.044;8.910;2023-03-04T10:51:48;6.70;99.90
33095;DHT22;19459;53.044;8.910;2023-03-04T10:57:10;6.40;99.90
33095;DHT22;19459;53.044;8.910;2023-03-04T11:05:14;7.20;99.90
33095;DHT22;19459;53.044;8.910;2023-03-04T11:10:29;7.80;99.90
33095;DHT22;19459;53.044;8.910;2023-03-04T11:13:02;7.80;99.90
33095;DHT22;19459;53.044;8.910;2023-03-04T11:15:49;7.70;99.90
33095;DHT22;19459;53.044;8.910;2023-03-04T11:18:29;7.50;99.90
33095;DHT22;19459;53.044;8.910;2023-03-04T11:21:38;7.10;99.90
33095;DHT22;19459;53.044;8.910;2023-03-04T11:24:13;6.80;99.90
33095;DHT22;19459;53.044;8.910;2023-03-04T11:26:49;6.90;99.90
33095;DHT22;19459;53.044;8.910;2023-03-04T11:29:42;7.00;99.90
33095;DHT22;19459;53.044;8.910;2023-03-04T11:32:29;6.90;99.90
33095;DHT22;19459;53.044;8.910;2023-03-04T11:38:28;7.10;99.90
33095;DHT22;19459;53.044;8.910;2023-03-04T11:41:12;7.50;99.90
33095;DHT22;19459;53.044;8.910;2023-03-04T11:43:45;7.80;99.90
33095;DHT22;19459;53.044;8.910;2023-03-04T11:57:59;7.10;99.90
33095;DHT22;19459;53.044;8.910;2023-03-04T12:00:39;7.10;99.90
33095;DHT22;19459;53.044;8.910;2023-03-04T12:15:21;7.70;99.90
33095;DHT22;19459;53.044;8.910;2023-03-04T12:27:00;6.90;99.90
33095;DHT22;19459;53.044;8.910;2023-03-04T12:35:55;7.00;99.90
33095;DHT22;19459;53.044;8.910;2023-03-04T12:44:19;7.20;99.90
33095;DHT22;19459;53.044;8.910;2023-03-04T12:53:55;7.70;99.90
33095;DHT22;19459;53.044;8.910;2023-03-04T12:56:43;7.70;99.90
33095;DHT22;19459;53.044;8.910;2023-03-04T12:59:16;7.70;99.90
33095;DHT22;19459;53.044;8.910;2023-03-04T13:02:09;7.80;99.90
33095;DHT22;19459;53.044;8.910;2023-03-04T13:05:13;7.80;99.90
33095;DHT22;19459;53.044;8.910;2023-03-04T13:08:07;8.00;99.90
33095;DHT22;19459;53.044;8.910;2023-03-04T13:10:38;7.80;99.90
33095;DHT22;19459;53.044;8.910;2023-03-04T13:13:04;7.50;99.90
33095;DHT22;19459;53.044;8.910;2023-03-04T13:15:36;7.30;99.90
33095;DHT22;19459;53.044;8.910;2023-03-04T13:18:30;7.10;99.90
33095;DHT22;19459;53.044;8.910;2023-03-04T13:21:27;6.90;99.90
33095;DHT22;19459;53.044;8.910;2023-03-04T13:23:54;6.70;99.90
33095;DHT22;19459;53.044;8.910;2023-03-04T13:32:08;6.60;99.90
33095;DHT22;19459;53.044;8.910;2023-03-04T13:34:48;6.60;99.90
33095;DHT22;19459;53.044;8.910;2023-03-04T13:37:29;6.60;99.90
33095;DHT22;19459;53.044;8.910;2023-03-04T13:42:52;6.90;99.90
33095;DHT22;19459;53.044;8.910;2023-03-04T13:45:34;7.00;99.90
33095;DHT22;19459;53.044;8.910;2023-03-04T13:48:03;7.00;99.90
33095;DHT22;19459;53.044;8.910;2023-03-04T13:50:38;7.00;99.90
33095;DHT22;19459;53.044;8.910;2023-03-04T13:53:38;6.90;99.90
33095;DHT22;19459;53.044;8.910;2023-03-04T14:01:48;7.00;99.90
33095;DHT22;19459;53.044;8.910;2023-03-04T14:04:26;7.00;99.90
33095;DHT22;19459;53.044;8.910;2023-03-04T14:06:56;7.10;99.90
33095;DHT22;19459;53.044;8.910;2023-03-04T14:09:31;7.00;99.90
33095;DHT22;19459;53.044;8.910;2023-03-04T14:12:00;6.70;99.90
33095;DHT22;19459;53.044;8.910;2023-03-04T14:14:40;6.40;99.90
33095;DHT22;19459;53.044;8.910;2023-03-04T14:17:19;6.20;99.90
33095;DHT22;19459;53.044;8.910;2023-03-04T14:19:47;6.20;99.90
33095;DHT22;19459;53.044;8.910;2023-03-04T14:22:22;6.30;99.90
33095;DHT22;19459;53.044;8.910;2023-03-04T14:27:38;6.40;99.90
33095;DHT22;19459;53.044;8.910;2023-03-04T14:30:19;6.40;99.90
33095;DHT22;19459;53.044;8.910;2023-03-04T14:32:47;6.50;99.90
33095;DHT22;19459;53.044;8.910;2023-03-04T14:35:22;6.50;99.90
33095;DHT22;19459;53.044;8.910;2023-03-04T14:41:14;6.50;99.90
33095;DHT22;19459;53.044;8.910;2023-03-04T14:46:30;6.20;99.90
33095;DHT22;19459;53.044;8.910;2023-03-04T14:48:59;6.10;99.90
33095;DHT22;19459;53.044;8.910;2023-03-04T14:51:30;6.00;99.90
33095;DHT22;19459;53.044;8.910;2023-03-04T14:57:22;6.00;99.90
33095;DHT22;19459;53.044;8.910;2023-03-04T14:59:52;5.90;99.90
33095;DHT22;19459;53.044;8.910;2023-03-04T15:02:25;5.90;99.90
33095;DHT22;19459;53.044;8.910;2023-03-04T15:05:19;6.00;99.90
33095;DHT22;19459;53.044;8.910;2023-03-04T15:08:14;5.90;99.90
33095;DHT22;19459;53.044;8.910;2023-03-04T15:10:55;6.00;99.90
33095;DHT22;19459;53.044;8.910;2023-03-04T15:13:48;6.00;99.90
33095;DHT22;19459;53.044;8.910;2023-03-04T15:16:17;5.90;99.90
33095;DHT22;19459;53.044;8.910;2023-03-04T15:19:02;6.00;99.90
33095;DHT22;19459;53.044;8.910;2023-03-04T15:21:31;5.90;99.90
33095;DHT22;19459;53.044;8.910;2023-03-04T15:23:58;6.00;99.90
33095;DHT22;19459;53.044;8.910;2023-03-04T15:26:25;6.00;99.90
33095;DHT22;19459;53.044;8.910;2023-03-04T15:28:51;6.00;99.90
33095;DHT22;19459;53.044;8.910;2023-03-04T15:31:23;6.00;99.90
33095;DHT22;19459;53.044;8.910;2023-03-04T15:33:50;6.00;99.90
33095;DHT22;19459;53.044;8.910;2023-03-04T15:36:22;6.00;99.90
33095;DHT22;19459;53.044;8.910;2023-03-04T15:38:50;6.00;99.90
33095;DHT22;19459;53.044;8.910;2023-03-04T15:41:23;6.00;99.90
33095;DHT22;19459;53.044;8.910;2023-03-04T15:43:51;6.00;99.90
33095;DHT22;19459;53.044;8.910;2023-03-04T15:46:18;6.00;99.90
33095;DHT22;19459;53.044;8.910;2023-03-04T15:48:45;5.90;99.90
33095;DHT22;19459;53.044;8.910;2023-03-04T15:51:17;5.80;99.90
33095;DHT22;19459;53.044;8.910;2023-03-04T15:53:50;5.70;99.90
33095;DHT22;19459;53.044;8.910;2023-03-04T15:56:22;5.70;99.90
33095;DHT22;19459;53.044;8.910;2023-03-04T15:59:11;5.60;99.90
33095;DHT22;19459;53.044;8.910;2023-03-04T16:01:38;5.60;99.90
33095;DHT22;19459;53.044;8.910;2023-03-04T16:04:04;5.60;99.90
33095;DHT22;19459;53.044;8.910;2023-03-04T16:06:31;5.40;99.90
33095;DHT22;19459;53.044;8.910;2023-03-04T16:08:58;5.40;99.90
33095;DHT22;19459;53.044;8.910;2023-03-04T16:11:26;5.40;99.90
33095;DHT22;19459;53.044;8.910;2023-03-04T16:13:53;5.40;99.90
33095;DHT22;19459;53.044;8.910;2023-03-04T16:16:19;5.30;99.90
33095;DHT22;19459;53.044;8.910;2023-03-04T16:18:45;5.30;99.90
33095;DHT22;19459;53.044;8.910;2023-03-04T16:21:14;5.30;99.90
33095;DHT22;19459;53.044;8.910;2023-03-04T16:23:45;5.20;99.90
33095;DHT22;19459;53.044;8.910;2023-03-04T16:26:14;5.20;99.90
33095;DHT22;19459;53.044;8.910;2023-03-04T16:28:42;5.10;99.90
33095;DHT22;19459;53.044;8.910;2023-03-04T16:31:10;5.10;99.90
33095;DHT22;19459;53.044;8.910;2023-03-04T16:33:36;5.10;99.90
33095;DHT22;19459;53.044;8.910;2023-03-04T16:36:03;5.10;99.90
33095;DHT22;19459;53.044;8.910;2023-03-04T16:38:31;5.10;99.90
33095;DHT22;19459;53.044;8.910;2023-03-04T16:40:58;5.10;99.90
33095;DHT22;19459;53.044;8.910;2023-03-04T16:43:26;5.10;99.90
33095;DHT22;19459;53.044;8.910;2023-03-04T16:45:52;5.00;99.90
33095;DHT22;19459;53.044;8.910;2023-03-04T16:48:17;4.90;99.90
33095;DHT22;19459;53.044;8.910;2023-03-04T16:50:45;4.90;99.90
33095;DHT22;19459;53.044;8.910;2023-03-04T16:53:22;4.80;99.90
33095;DHT22;19459;53.044;8.910;2023-03-04T16:55:51;4.60;99.90
33095;DHT22;19459;53.044;8.910;2023-03-04T16:58:17;4.60;99.90
33095;DHT22;19459;53.044;8.910;2023-03-04T17:00:43;4.50;99.90
33095;DHT22;19459;53.044;8.910;2023-03-04T17:03:09;4.40;99.90
33095;DHT22;19459;53.044;8.910;2023-03-04T17:05:35;4.40;99.90
33095;DHT22;19459;53.044;8.910;2023-03-04T17:08:01;4.40;99.90
33095;DHT22;19459;53.044;8.910;2023-03-04T17:10:27;4.40;99.90
33095;DHT22;19459;53.044;8.910;2023-03-04T17:12:53;4.40;99.90
33095;DHT22;19459;53.044;8.910;2023-03-04T17:15:19;4.40;99.90
33095;DHT22;19459;53.044;8.910;2023-03-04T17:17:46;4.40;99.90
33095;DHT22;19459;53.044;8.910;2023-03-04T17:20:16;4.40;99.90
33095;DHT22;19459;53.044;8.910;2023-03-04T17:22:43;4.40;99.90
33095;DHT22;19459;53.044;8.910;2023-03-04T17:25:09;4.40;99.90
33095;DHT22;19459;53.044;8.910;2023-03-04T17:27:39;4.40;99.90
33095;DHT22;19459;53.044;8.910;2023-03-04T17:30:06;4.50;99.90
33095;DHT22;19459;53.044;8.910;2023-03-04T17:32:33;4.40;99.90
33095;DHT22;19459;53.044;8.910;2023-03-04T17:34:59;4.50;99.90
33095;DHT22;19459;53.044;8.910;2023-03-04T17:37:25;4.50;99.90
33095;DHT22;19459;53.044;8.910;2023-03-04T17:39:51;4.50;99.90
33095;DHT22;19459;53.044;8.910;2023-03-04T17:42:19;4.50;99.90
33095;DHT22;19459;53.044;8.910;2023-03-04T17:44:45;4.50;99.90
33095;DHT22;19459;53.044;8.910;2023-03-04T17:47:11;4.50;99.90
33095;DHT22;19459;53.044;8.910;2023-03-04T17:49:37;4.50;99.90
33095;DHT22;19459;53.044;8.910;2023-03-04T17:52:03;4.50;99.90
33095;DHT22;19459;53.044;8.910;2023-03-04T17:54:30;4.50;99.90
33095;DHT22;19459;53.044;8.910;2023-03-04T17:56:56;4.50;99.90
33095;DHT22;19459;53.044;8.910;2023-03-04T17:59:22;4.40;99.90
33095;DHT22;19459;53.044;8.910;2023-03-04T18:01:48;4.50;99.90
33095;DHT22;19459;53.044;8.910;2023-03-04T18:04:15;4.50;99.90
33095;DHT22;19459;53.044;8.910;2023-03-04T18:06:41;4.50;99.90